North Fort Myers, Florida
Current Conditions -  °F | °C
As of 12:53 AM on Monday 22 Dec 2014 (Local Time) from KFMY Reporting Station
Broken Clouds Broken Clouds  
Wind Chill: 70°   Ceiling: 11000
Heat Index: 70°   Visibility: 10mi
Dew Point: 67°   Wind: 5mph
Humidity: 90%   Direction: 150°SSE
Pressure: 30.03"   Gusts: NA
Location:  26.68°N, 81.9°W
Report Text: KFMY 220553Z AUTO 15004KT 10SM BKN110 21/19 A3003 RMK AO2 RAB16E44 SLP170 P0000 60003 T02110194 10228 20211 58001
Loading
Personal Weather Stations






























Interactive Weather Map New forecast layout! Learn more

10-Day Weather Forecast

Advertisements
Track Severe Weather on mobile